sensor_id;sensor_type;location;lat;lon;timestamp;temperature;humidity
49579;DHT22;35483;50.828;3.228;2023-03-13T00:00:55;12.50;99.90
49579;DHT22;35483;50.828;3.228;2023-03-13T00:03:22;12.40;99.90
49579;DHT22;35483;50.828;3.228;2023-03-13T00:05:48;12.40;99.90
49579;DHT22;35483;50.828;3.228;2023-03-13T00:08:13;12.40;99.90
49579;DHT22;35483;50.828;3.228;2023-03-13T00:10:40;12.40;99.90
49579;DHT22;35483;50.828;3.228;2023-03-13T00:13:08;12.40;99.90
49579;DHT22;35483;50.828;3.228;2023-03-13T00:15:34;12.50;99.90
49579;DHT22;35483;50.828;3.228;2023-03-13T00:18:00;12.50;99.90
49579;DHT22;35483;50.828;3.228;2023-03-13T00:20:26;12.50;99.90
49579;DHT22;35483;50.828;3.228;2023-03-13T00:22:52;12.50;99.90
49579;DHT22;35483;50.828;3.228;2023-03-13T00:25:17;12.60;99.90
49579;DHT22;35483;50.828;3.228;2023-03-13T00:27:43;12.60;99.90
49579;DHT22;35483;50.828;3.228;2023-03-13T00:30:09;12.60;99.90
49579;DHT22;35483;50.828;3.228;2023-03-13T00:32:42;12.60;99.90
49579;DHT22;35483;50.828;3.228;2023-03-13T00:35:08;12.70;99.90
49579;DHT22;35483;50.828;3.228;2023-03-13T00:37:34;12.70;99.90
49579;DHT22;35483;50.828;3.228;2023-03-13T00:39:59;12.70;99.90
49579;DHT22;35483;50.828;3.228;2023-03-13T00:42:25;12.70;99.90
49579;DHT22;35483;50.828;3.228;2023-03-13T00:44:51;12.80;99.90
49579;DHT22;35483;50.828;3.228;2023-03-13T00:47:17;12.80;99.90
49579;DHT22;35483;50.828;3.228;2023-03-13T00:49:42;12.80;99.90
49579;DHT22;35483;50.828;3.228;2023-03-13T00:52:08;12.80;99.90
49579;DHT22;35483;50.828;3.228;2023-03-13T00:54:34;12.80;99.90
49579;DHT22;35483;50.828;3.228;2023-03-13T00:56:59;12.80;99.90
49579;DHT22;35483;50.828;3.228;2023-03-13T00:59:25;12.90;99.90
49579;DHT22;35483;50.828;3.228;2023-03-13T01:01:52;12.90;99.90
49579;DHT22;35483;50.828;3.228;2023-03-13T01:04:17;12.90;99.90
49579;DHT22;35483;50.828;3.228;2023-03-13T01:06:43;12.90;99.90
49579;DHT22;35483;50.828;3.228;2023-03-13T01:09:12;13.00;99.90
49579;DHT22;35483;50.828;3.228;2023-03-13T01:11:39;13.00;99.90
49579;DHT22;35483;50.828;3.228;2023-03-13T01:14:11;13.00;99.90
49579;DHT22;35483;50.828;3.228;2023-03-13T01:16:38;13.00;99.90
49579;DHT22;35483;50.828;3.228;2023-03-13T01:19:12;13.00;99.90
49579;DHT22;35483;50.828;3.228;2023-03-13T01:21:38;13.00;99.90
49579;DHT22;35483;50.828;3.228;2023-03-13T01:24:04;13.00;99.90
49579;DHT22;35483;50.828;3.228;2023-03-13T01:26:30;13.00;99.90
49579;DHT22;35483;50.828;3.228;2023-03-13T01:28:56;13.10;99.90
49579;DHT22;35483;50.828;3.228;2023-03-13T01:31:27;13.10;99.90
49579;DHT22;35483;50.828;3.228;2023-03-13T01:33:56;13.10;99.90
49579;DHT22;35483;50.828;3.228;2023-03-13T01:36:23;13.20;99.90
49579;DHT22;35483;50.828;3.228;2023-03-13T01:38:50;13.20;99.90
49579;DHT22;35483;50.828;3.228;2023-03-13T01:41:17;13.20;99.90
49579;DHT22;35483;50.828;3.228;2023-03-13T01:43:44;13.10;99.90
49579;DHT22;35483;50.828;3.228;2023-03-13T01:46:16;13.10;99.90
49579;DHT22;35483;50.828;3.228;2023-03-13T01:49:11;13.20;99.90
49579;DHT22;35483;50.828;3.228;2023-03-13T01:51:43;13.20;99.90
49579;DHT22;35483;50.828;3.228;2023-03-13T01:56:59;13.20;99.90
49579;DHT22;35483;50.828;3.228;2023-03-13T01:59:29;13.20;99.90
49579;DHT22;35483;50.828;3.228;2023-03-13T02:01:59;13.20;99.90
49579;DHT22;35483;50.828;3.228;2023-03-13T02:04:30;13.20;99.90
49579;DHT22;35483;50.828;3.228;2023-03-13T02:07:00;13.30;99.90
49579;DHT22;35483;50.828;3.228;2023-03-13T02:09:29;13.30;99.90
49579;DHT22;35483;50.828;3.228;2023-03-13T02:12:09;13.30;99.90
49579;DHT22;35483;50.828;3.228;2023-03-13T02:14:38;13.30;99.90
49579;DHT22;35483;50.828;3.228;2023-03-13T02:17:06;13.30;99.90
49579;DHT22;35483;50.828;3.228;2023-03-13T02:19:46;13.40;99.90
49579;DHT22;35483;50.828;3.228;2023-03-13T02:27:31;13.40;99.90
49579;DHT22;35483;50.828;3.228;2023-03-13T02:29:57;13.40;99.90
49579;DHT22;35483;50.828;3.228;2023-03-13T02:32:25;13.40;99.90
49579;DHT22;35483;50.828;3.228;2023-03-13T02:34:55;13.50;99.90
49579;DHT22;35483;50.828;3.228;2023-03-13T02:37:24;13.50;99.90
49579;DHT22;35483;50.828;3.228;2023-03-13T02:39:51;13.40;99.90
49579;DHT22;35483;50.828;3.228;2023-03-13T02:42:18;13.50;99.90
49579;DHT22;35483;50.828;3.228;2023-03-13T02:44:46;13.50;99.90
49579;DHT22;35483;50.828;3.228;2023-03-13T02:47:19;13.50;99.90
49579;DHT22;35483;50.828;3.228;2023-03-13T02:49:46;13.50;99.90
49579;DHT22;35483;50.828;3.228;2023-03-13T02:52:18;13.50;99.90
49579;DHT22;35483;50.828;3.228;2023-03-13T02:54:49;13.50;99.90
49579;DHT22;35483;50.828;3.228;2023-03-13T02:57:15;13.60;99.90
49579;DHT22;35483;50.828;3.228;2023-03-13T02:59:41;13.60;99.90
49579;DHT22;35483;50.828;3.228;2023-03-13T03:02:07;13.60;99.90
49579;DHT22;35483;50.828;3.228;2023-03-13T03:04:33;13.60;99.90
49579;DHT22;35483;50.828;3.228;2023-03-13T03:06:59;13.60;99.90
49579;DHT22;35483;50.828;3.228;2023-03-13T03:09:25;13.60;99.90
49579;DHT22;35483;50.828;3.228;2023-03-13T03:11:50;13.70;99.90
49579;DHT22;35483;50.828;3.228;2023-03-13T03:14:16;13.70;99.90
49579;DHT22;35483;50.828;3.228;2023-03-13T03:16:42;13.70;99.90
49579;DHT22;35483;50.828;3.228;2023-03-13T03:19:08;13.70;99.90
49579;DHT22;35483;50.828;3.228;2023-03-13T03:21:35;13.70;99.90
49579;DHT22;35483;50.828;3.228;2023-03-13T03:24:01;13.80;99.90
49579;DHT22;35483;50.828;3.228;2023-03-13T03:26:27;13.70;99.90
49579;DHT22;35483;50.828;3.228;2023-03-13T03:28:53;13.80;99.90
49579;DHT22;35483;50.828;3.228;2023-03-13T03:31:19;13.80;99.90
49579;DHT22;35483;50.828;3.228;2023-03-13T03:33:45;13.80;99.90
49579;DHT22;35483;50.828;3.228;2023-03-13T03:36:16;13.80;99.90
49579;DHT22;35483;50.828;3.228;2023-03-13T03:38:43;13.80;99.90
49579;DHT22;35483;50.828;3.228;2023-03-13T03:41:10;13.80;99.90
49579;DHT22;35483;50.828;3.228;2023-03-13T03:43:36;13.80;99.90
49579;DHT22;35483;50.828;3.228;2023-03-13T03:46:02;13.80;99.90
49579;DHT22;35483;50.828;3.228;2023-03-13T03:48:29;13.80;99.90
49579;DHT22;35483;50.828;3.228;2023-03-13T03:50:54;13.90;99.90
49579;DHT22;35483;50.828;3.228;2023-03-13T03:53:20;13.80;99.90
49579;DHT22;35483;50.828;3.228;2023-03-13T03:55:46;13.80;99.90
49579;DHT22;35483;50.828;3.228;2023-03-13T03:58:12;13.80;99.90
49579;DHT22;35483;50.828;3.228;2023-03-13T04:00:37;13.80;99.90
49579;DHT22;35483;50.828;3.228;2023-03-13T04:03:03;13.80;99.90
49579;DHT22;35483;50.828;3.228;2023-03-13T04:05:29;13.80;99.90
49579;DHT22;35483;50.828;3.228;2023-03-13T04:07:54;13.80;99.90
49579;DHT22;35483;50.828;3.228;2023-03-13T04:10:20;13.90;99.90
49579;DHT22;35483;50.828;3.228;2023-03-13T04:12:46;13.90;99.90
49579;DHT22;35483;50.828;3.228;2023-03-13T04:15:12;13.90;99.90
49579;DHT22;35483;50.828;3.228;2023-03-13T04:17:38;13.90;99.90
49579;DHT22;35483;50.828;3.228;2023-03-13T04:20:05;13.90;99.90
49579;DHT22;35483;50.828;3.228;2023-03-13T04:22:31;13.90;99.90
49579;DHT22;35483;50.828;3.228;2023-03-13T04:24:59;13.90;99.90
49579;DHT22;35483;50.828;3.228;2023-03-13T04:27:24;13.90;99.90
49579;DHT22;35483;50.828;3.228;2023-03-13T04:29:50;13.90;99.90
49579;DHT22;35483;50.828;3.228;2023-03-13T04:32:16;13.90;99.90
49579;DHT22;35483;50.828;3.228;2023-03-13T04:34:42;13.90;99.90
49579;DHT22;35483;50.828;3.228;2023-03-13T04:37:08;13.90;99.90
49579;DHT22;35483;50.828;3.228;2023-03-13T04:39:34;13.90;99.90
49579;DHT22;35483;50.828;3.228;2023-03-13T04:41:59;13.90;99.90
49579;DHT22;35483;50.828;3.228;2023-03-13T04:44:25;13.90;99.90
49579;DHT22;35483;50.828;3.228;2023-03-13T04:46:51;14.00;99.90
49579;DHT22;35483;50.828;3.228;2023-03-13T04:49:17;13.90;99.90
49579;DHT22;35483;50.828;3.228;2023-03-13T04:51:43;13.90;99.90
49579;DHT22;35483;50.828;3.228;2023-03-13T04:54:10;13.90;99.90
49579;DHT22;35483;50.828;3.228;2023-03-13T04:56:37;13.90;99.90
49579;DHT22;35483;50.828;3.228;2023-03-13T04:59:03;13.90;99.90
49579;DHT22;35483;50.828;3.228;2023-03-13T05:01:29;13.90;99.90
49579;DHT22;35483;50.828;3.228;2023-03-13T05:03:55;13.90;99.90
49579;DHT22;35483;50.828;3.228;2023-03-13T05:06:21;13.90;99.90
49579;DHT22;35483;50.828;3.228;2023-03-13T05:08:46;14.00;99.90
49579;DHT22;35483;50.828;3.228;2023-03-13T05:11:12;14.00;99.90
49579;DHT22;35483;50.828;3.228;2023-03-13T05:13:38;14.00;99.90
49579;DHT22;35483;50.828;3.228;2023-03-13T05:16:04;14.00;99.90
49579;DHT22;35483;50.828;3.228;2023-03-13T05:18:30;14.00;99.90
49579;DHT22;35483;50.828;3.228;2023-03-13T05:20:55;14.00;99.90
49579;DHT22;35483;50.828;3.228;2023-03-13T05:23:23;14.00;99.90
49579;DHT22;35483;50.828;3.228;2023-03-13T05:25:50;14.00;99.90
49579;DHT22;35483;50.828;3.228;2023-03-13T05:28:17;14.00;99.90
49579;DHT22;35483;50.828;3.228;2023-03-13T05:30:43;14.00;99.90
49579;DHT22;35483;50.828;3.228;2023-03-13T05:33:08;14.00;99.90
49579;DHT22;35483;50.828;3.228;2023-03-13T05:35:34;14.00;99.90
49579;DHT22;35483;50.828;3.228;2023-03-13T05:38:01;14.00;99.90
49579;DHT22;35483;50.828;3.228;2023-03-13T05:40:27;14.00;99.90
49579;DHT22;35483;50.828;3.228;2023-03-13T05:42:55;14.00;99.90
49579;DHT22;35483;50.828;3.228;2023-03-13T05:45:22;14.10;99.90
49579;DHT22;35483;50.828;3.228;2023-03-13T05:47:47;14.10;99.90
49579;DHT22;35483;50.828;3.228;2023-03-13T05:50:14;14.10;99.90
49579;DHT22;35483;50.828;3.228;2023-03-13T05:52:40;14.10;99.90
49579;DHT22;35483;50.828;3.228;2023-03-13T05:55:06;14.10;99.90
49579;DHT22;35483;50.828;3.228;2023-03-13T05:57:33;14.10;99.90
49579;DHT22;35483;50.828;3.228;2023-03-13T06:00:01;14.10;99.90
49579;DHT22;35483;50.828;3.228;2023-03-13T06:02:29;14.10;99.90
49579;DHT22;35483;50.828;3.228;2023-03-13T06:04:54;14.00;99.90
49579;DHT22;35483;50.828;3.228;2023-03-13T06:07:21;14.00;99.90
49579;DHT22;35483;50.828;3.228;2023-03-13T06:09:55;14.00;99.90
49579;DHT22;35483;50.828;3.228;2023-03-13T06:12:20;14.00;99.90
49579;DHT22;35483;50.828;3.228;2023-03-13T06:14:48;14.00;99.90
49579;DHT22;35483;50.828;3.228;2023-03-13T06:17:15;14.00;99.90
49579;DHT22;35483;50.828;3.228;2023-03-13T06:19:41;14.10;99.90
49579;DHT22;35483;50.828;3.228;2023-03-13T06:22:06;14.10;99.90
49579;DHT22;35483;50.828;3.228;2023-03-13T06:24:33;14.10;99.90
49579;DHT22;35483;50.828;3.228;2023-03-13T06:27:02;14.10;99.90
49579;DHT22;35483;50.828;3.228;2023-03-13T06:29:28;14.20;99.90
49579;DHT22;35483;50.828;3.228;2023-03-13T06:31:54;14.20;99.90
49579;DHT22;35483;50.828;3.228;2023-03-13T06:34:20;14.20;99.90
49579;DHT22;35483;50.828;3.228;2023-03-13T06:36:49;14.20;99.90
49579;DHT22;35483;50.828;3.228;2023-03-13T06:39:18;14.20;99.90
49579;DHT22;35483;50.828;3.228;2023-03-13T06:41:43;14.20;99.90
49579;DHT22;35483;50.828;3.228;2023-03-13T06:44:09;14.20;99.90
49579;DHT22;35483;50.828;3.228;2023-03-13T06:46:36;14.30;99.90
49579;DHT22;35483;50.828;3.228;2023-03-13T06:49:02;14.20;99.90
49579;DHT22;35483;50.828;3.228;2023-03-13T06:51:31;14.20;99.90
49579;DHT22;35483;50.828;3.228;2023-03-13T06:53:58;14.20;99.90
49579;DHT22;35483;50.828;3.228;2023-03-13T06:56:25;14.20;99.90
49579;DHT22;35483;50.828;3.228;2023-03-13T06:58:53;14.20;99.90
49579;DHT22;35483;50.828;3.228;2023-03-13T07:01:19;14.10;99.90
49579;DHT22;35483;50.828;3.228;2023-03-13T07:03:47;14.20;99.90
49579;DHT22;35483;50.828;3.228;2023-03-13T07:06:13;14.10;99.90
49579;DHT22;35483;50.828;3.228;2023-03-13T07:08:39;14.20;99.90
49579;DHT22;35483;50.828;3.228;2023-03-13T07:11:08;14.20;99.90
49579;DHT22;35483;50.828;3.228;2023-03-13T07:13:40;14.30;99.90
49579;DHT22;35483;50.828;3.228;2023-03-13T07:16:08;14.30;99.90
49579;DHT22;35483;50.828;3.228;2023-03-13T07:18:34;14.30;99.90
49579;DHT22;35483;50.828;3.228;2023-03-13T07:21:01;14.30;99.90
49579;DHT22;35483;50.828;3.228;2023-03-13T07:23:32;14.30;99.90
49579;DHT22;35483;50.828;3.228;2023-03-13T07:26:00;14.40;99.90
49579;DHT22;35483;50.828;3.228;2023-03-13T07:28:30;14.40;99.90
49579;DHT22;35483;50.828;3.228;2023-03-13T07:31:13;14.50;99.90
49579;DHT22;35483;50.828;3.228;2023-03-13T07:33:40;14.50;99.90
49579;DHT22;35483;50.828;3.228;2023-03-13T07:36:07;14.60;99.90
49579;DHT22;35483;50.828;3.228;2023-03-13T07:38:33;14.50;99.90
49579;DHT22;35483;50.828;3.228;2023-03-13T07:40:59;14.60;99.90
49579;DHT22;35483;50.828;3.228;2023-03-13T07:43:25;14.70;99.90
49579;DHT22;35483;50.828;3.228;2023-03-13T07:45:53;14.70;99.90
49579;DHT22;35483;50.828;3.228;2023-03-13T07:48:20;14.80;99.90
49579;DHT22;35483;50.828;3.228;2023-03-13T07:50:47;14.80;99.90
49579;DHT22;35483;50.828;3.228;2023-03-13T07:53:13;14.80;99.90
49579;DHT22;35483;50.828;3.228;2023-03-13T07:55:51;14.90;99.90
49579;DHT22;35483;50.828;3.228;2023-03-13T07:58:17;15.00;99.90
49579;DHT22;35483;50.828;3.228;2023-03-13T08:00:43;15.00;99.90
49579;DHT22;35483;50.828;3.228;2023-03-13T08:03:09;15.10;99.90
49579;DHT22;35483;50.828;3.228;2023-03-13T08:05:36;15.10;99.90
49579;DHT22;35483;50.828;3.228;2023-03-13T08:08:01;15.10;99.90
49579;DHT22;35483;50.828;3.228;2023-03-13T08:10:30;15.10;99.90
49579;DHT22;35483;50.828;3.228;2023-03-13T08:12:56;15.20;99.90
49579;DHT22;35483;50.828;3.228;2023-03-13T08:15:23;15.30;99.90
49579;DHT22;35483;50.828;3.228;2023-03-13T08:17:56;15.30;99.90
49579;DHT22;35483;50.828;3.228;2023-03-13T08:20:22;15.30;99.90
49579;DHT22;35483;50.828;3.228;2023-03-13T08:22:48;15.30;99.90
49579;DHT22;35483;50.828;3.228;2023-03-13T08:25:16;15.40;99.90
49579;DHT22;35483;50.828;3.228;2023-03-13T08:27:44;15.50;99.90
49579;DHT22;35483;50.828;3.228;2023-03-13T08:30:10;15.60;99.90
49579;DHT22;35483;50.828;3.228;2023-03-13T08:32:37;15.60;99.90
49579;DHT22;35483;50.828;3.228;2023-03-13T08:35:03;15.70;99.90
49579;DHT22;35483;50.828;3.228;2023-03-13T08:37:29;15.80;99.90
49579;DHT22;35483;50.828;3.228;2023-03-13T08:39:55;15.80;99.90
49579;DHT22;35483;50.828;3.228;2023-03-13T08:42:22;15.70;99.90
49579;DHT22;35483;50.828;3.228;2023-03-13T08:44:48;15.80;99.90
49579;DHT22;35483;50.828;3.228;2023-03-13T08:47:15;15.90;99.90
49579;DHT22;35483;50.828;3.228;2023-03-13T08:49:44;15.90;99.90
49579;DHT22;35483;50.828;3.228;2023-03-13T08:52:09;16.00;99.90
49579;DHT22;35483;50.828;3.228;2023-03-13T08:54:35;16.00;99.90
49579;DHT22;35483;50.828;3.228;2023-03-13T08:57:02;15.90;99.90
49579;DHT22;35483;50.828;3.228;2023-03-13T08:59:28;16.00;99.90
49579;DHT22;35483;50.828;3.228;2023-03-13T09:01:54;16.00;99.90
49579;DHT22;35483;50.828;3.228;2023-03-13T09:04:21;16.10;99.90
49579;DHT22;35483;50.828;3.228;2023-03-13T09:06:48;16.10;99.90
49579;DHT22;35483;50.828;3.228;2023-03-13T09:09:14;16.10;99.90
49579;DHT22;35483;50.828;3.228;2023-03-13T09:11:40;16.30;99.90
49579;DHT22;35483;50.828;3.228;2023-03-13T09:14:09;16.40;99.90
49579;DHT22;35483;50.828;3.228;2023-03-13T09:16:35;16.40;99.90
49579;DHT22;35483;50.828;3.228;2023-03-13T09:19:00;16.50;99.90
49579;DHT22;35483;50.828;3.228;2023-03-13T09:21:29;16.60;99.90
49579;DHT22;35483;50.828;3.228;2023-03-13T09:23:58;16.60;99.90
49579;DHT22;35483;50.828;3.228;2023-03-13T09:26:25;16.70;99.90
49579;DHT22;35483;50.828;3.228;2023-03-13T09:28:52;16.80;99.90
49579;DHT22;35483;50.828;3.228;2023-03-13T09:31:27;16.80;99.90
49579;DHT22;35483;50.828;3.228;2023-03-13T09:33:53;16.70;99.90
49579;DHT22;35483;50.828;3.228;2023-03-13T09:36:21;16.50;99.90
49579;DHT22;35483;50.828;3.228;2023-03-13T09:38:50;16.50;99.90
49579;DHT22;35483;50.828;3.228;2023-03-13T09:43:55;16.50;99.90
49579;DHT22;35483;50.828;3.228;2023-03-13T09:46:30;16.70;99.90
49579;DHT22;35483;50.828;3.228;2023-03-13T09:48:59;16.70;99.90
49579;DHT22;35483;50.828;3.228;2023-03-13T09:51:28;16.70;99.80
49579;DHT22;35483;50.828;3.228;2023-03-13T09:57:33;16.90;99.90
49579;DHT22;35483;50.828;3.228;2023-03-13T10:00:07;17.00;99.90
49579;DHT22;35483;50.828;3.228;2023-03-13T10:02:37;17.00;99.90
49579;DHT22;35483;50.828;3.228;2023-03-13T10:05:11;17.10;99.90
49579;DHT22;35483;50.828;3.228;2023-03-13T10:07:41;17.20;99.90
49579;DHT22;35483;50.828;3.228;2023-03-13T10:10:15;17.20;99.30
49579;DHT22;35483;50.828;3.228;2023-03-13T10:12:47;17.20;99.90
49579;DHT22;35483;50.828;3.228;2023-03-13T10:15:38;17.10;99.60
49579;DHT22;35483;50.828;3.228;2023-03-13T10:18:18;17.00;97.90
49579;DHT22;35483;50.828;3.228;2023-03-13T10:20:51;17.10;97.90
49579;DHT22;35483;50.828;3.228;2023-03-13T10:23:38;17.30;99.90
49579;DHT22;35483;50.828;3.228;2023-03-13T10:26:05;17.40;96.60
49579;DHT22;35483;50.828;3.228;2023-03-13T10:28:36;17.40;99.90
49579;DHT22;35483;50.828;3.228;2023-03-13T10:31:10;17.50;99.90
49579;DHT22;35483;50.828;3.228;2023-03-13T10:33:39;17.60;99.90
49579;DHT22;35483;50.828;3.228;2023-03-13T10:36:09;17.60;99.70
49579;DHT22;35483;50.828;3.228;2023-03-13T10:38:56;17.50;99.80
49579;DHT22;35483;50.828;3.228;2023-03-13T10:41:35;17.60;96.40
49579;DHT22;35483;50.828;3.228;2023-03-13T10:44:05;17.60;96.70
49579;DHT22;35483;50.828;3.228;2023-03-13T10:46:34;17.40;99.60
49579;DHT22;35483;50.828;3.228;2023-03-13T10:49:03;17.30;99.60
49579;DHT22;35483;50.828;3.228;2023-03-13T10:51:39;17.30;99.00
49579;DHT22;35483;50.828;3.228;2023-03-13T10:56:47;17.10;96.90
49579;DHT22;35483;50.828;3.228;2023-03-13T10:59:25;17.10;99.70
49579;DHT22;35483;50.828;3.228;2023-03-13T11:01:52;17.20;98.40
49579;DHT22;35483;50.828;3.228;2023-03-13T11:04:31;17.20;99.60
49579;DHT22;35483;50.828;3.228;2023-03-13T11:07:10;17.20;98.30
49579;DHT22;35483;50.828;3.228;2023-03-13T11:09:38;17.00;94.50
49579;DHT22;35483;50.828;3.228;2023-03-13T11:12:13;17.00;99.10
49579;DHT22;35483;50.828;3.228;2023-03-13T11:14:43;17.10;98.70
49579;DHT22;35483;50.828;3.228;2023-03-13T11:17:34;17.20;97.70
49579;DHT22;35483;50.828;3.228;2023-03-13T11:20:02;17.40;97.10
49579;DHT22;35483;50.828;3.228;2023-03-13T11:22:41;17.30;97.70
49579;DHT22;35483;50.828;3.228;2023-03-13T11:25:34;17.40;98.00
49579;DHT22;35483;50.828;3.228;2023-03-13T11:33:40;17.20;97.90
49579;DHT22;35483;50.828;3.228;2023-03-13T11:38:54;17.00;98.20
49579;DHT22;35483;50.828;3.228;2023-03-13T11:50:11;17.50;97.30
49579;DHT22;35483;50.828;3.228;2023-03-13T11:56:14;17.50;92.50
49579;DHT22;35483;50.828;3.228;2023-03-13T11:58:59;17.60;95.80
49579;DHT22;35483;50.828;3.228;2023-03-13T12:01:31;17.40;95.10
49579;DHT22;35483;50.828;3.228;2023-03-13T12:04:10;17.30;97.50
49579;DHT22;35483;50.828;3.228;2023-03-13T12:06:46;17.10;94.70
49579;DHT22;35483;50.828;3.228;2023-03-13T12:09:31;17.00;97.60
49579;DHT22;35483;50.828;3.228;2023-03-13T12:12:36;16.90;97.70
49579;DHT22;35483;50.828;3.228;2023-03-13T12:15:24;16.80;94.30
49579;DHT22;35483;50.828;3.228;2023-03-13T12:25:49;16.70;97.60
49579;DHT22;35483;50.828;3.228;2023-03-13T12:28:24;16.70;97.00
49579;DHT22;35483;50.828;3.228;2023-03-13T12:33:34;16.70;95.90
49579;DHT22;35483;50.828;3.228;2023-03-13T12:41:44;16.70;94.00
49579;DHT22;35483;50.828;3.228;2023-03-13T12:44:17;16.70;97.70
49579;DHT22;35483;50.828;3.228;2023-03-13T12:46:45;16.70;95.30
49579;DHT22;35483;50.828;3.228;2023-03-13T12:52:48;16.60;93.30
49579;DHT22;35483;50.828;3.228;2023-03-13T12:55:22;16.60;93.50
49579;DHT22;35483;50.828;3.228;2023-03-13T12:58:12;16.60;96.30
49579;DHT22;35483;50.828;3.228;2023-03-13T13:00:42;16.70;91.30
49579;DHT22;35483;50.828;3.228;2023-03-13T13:03:22;16.90;95.30
49579;DHT22;35483;50.828;3.228;2023-03-13T13:06:09;17.00;96.70
49579;DHT22;35483;50.828;3.228;2023-03-13T13:08:37;17.10;94.10
49579;DHT22;35483;50.828;3.228;2023-03-13T13:16:42;16.90;96.50
49579;DHT22;35483;50.828;3.228;2023-03-13T13:30:29;17.00;97.20
49579;DHT22;35483;50.828;3.228;2023-03-13T13:35:44;17.00;92.10
49579;DHT22;35483;50.828;3.228;2023-03-13T13:46:30;16.90;97.10
49579;DHT22;35483;50.828;3.228;2023-03-13T13:49:15;16.90;95.90
49579;DHT22;35483;50.828;3.228;2023-03-13T13:54:35;16.80;96.00
49579;DHT22;35483;50.828;3.228;2023-03-13T13:57:23;16.70;95.80
49579;DHT22;35483;50.828;3.228;2023-03-13T13:59:53;16.70;96.80
49579;DHT22;35483;50.828;3.228;2023-03-13T14:02:37;16.80;97.10
49579;DHT22;35483;50.828;3.228;2023-03-13T14:05:31;16.80;95.50
49579;DHT22;35483;50.828;3.228;2023-03-13T14:08:12;16.70;96.50
49579;DHT22;35483;50.828;3.228;2023-03-13T14:10:45;16.70;96.10
49579;DHT22;35483;50.828;3.228;2023-03-13T14:13:18;16.60;95.60
49579;DHT22;35483;50.828;3.228;2023-03-13T14:15:47;16.60;96.30
49579;DHT22;35483;50.828;3.228;2023-03-13T14:18:30;16.60;97.00
49579;DHT22;35483;50.828;3.228;2023-03-13T14:21:02;16.60;93.90
49579;DHT22;35483;50.828;3.228;2023-03-13T14:26:18;16.60;96.40
49579;DHT22;35483;50.828;3.228;2023-03-13T14:28:51;16.60;93.90
49579;DHT22;35483;50.828;3.228;2023-03-13T14:31:34;16.60;96.50
49579;DHT22;35483;50.828;3.228;2023-03-13T14:34:03;16.60;93.60
49579;DHT22;35483;50.828;3.228;2023-03-13T14:36:55;16.60;96.90
49579;DHT22;35483;50.828;3.228;2023-03-13T14:39:43;16.60;93.80
49579;DHT22;35483;50.828;3.228;2023-03-13T14:42:11;16.60;94.60
49579;DHT22;35483;50.828;3.228;2023-03-13T14:44:38;16.60;97.10
49579;DHT22;35483;50.828;3.228;2023-03-13T14:49:44;16.70;96.30
49579;DHT22;35483;50.828;3.228;2023-03-13T14:54:58;16.70;97.00
49579;DHT22;35483;50.828;3.228;2023-03-13T14:57:31;16.70;95.90
49579;DHT22;35483;50.828;3.228;2023-03-13T15:00:30;16.70;96.60
49579;DHT22;35483;50.828;3.228;2023-03-13T15:03:19;16.70;96.50
49579;DHT22;35483;50.828;3.228;2023-03-13T15:08:38;16.60;95.10
49579;DHT22;35483;50.828;3.228;2023-03-13T15:11:29;16.70;94.20
49579;DHT22;35483;50.828;3.228;2023-03-13T15:13:59;16.70;96.30
49579;DHT22;35483;50.828;3.228;2023-03-13T15:16:28;16.60;96.60
49579;DHT22;35483;50.828;3.228;2023-03-13T15:18:54;16.70;96.70
49579;DHT22;35483;50.828;3.228;2023-03-13T15:21:28;16.70;97.20
49579;DHT22;35483;50.828;3.228;2023-03-13T15:24:03;16.70;96.80
49579;DHT22;35483;50.828;3.228;2023-03-13T15:26:36;16.70;96.90
49579;DHT22;35483;50.828;3.228;2023-03-13T15:29:03;16.70;96.50
49579;DHT22;35483;50.828;3.228;2023-03-13T15:31:29;16.70;96.90
49579;DHT22;35483;50.828;3.228;2023-03-13T15:33:57;16.70;96.60
49579;DHT22;35483;50.828;3.228;2023-03-13T15:36:26;16.70;96.40
49579;DHT22;35483;50.828;3.228;2023-03-13T15:38:52;16.60;96.50
49579;DHT22;35483;50.828;3.228;2023-03-13T15:41:19;16.60;96.60
49579;DHT22;35483;50.828;3.228;2023-03-13T15:43:49;16.60;96.20
49579;DHT22;35483;50.828;3.228;2023-03-13T15:46:20;16.60;95.20
49579;DHT22;35483;50.828;3.228;2023-03-13T15:48:48;16.60;96.50
49579;DHT22;35483;50.828;3.228;2023-03-13T15:51:16;16.60;96.00
49579;DHT22;35483;50.828;3.228;2023-03-13T15:53:43;16.70;96.40
49579;DHT22;35483;50.828;3.228;2023-03-13T15:56:16;16.70;96.20
49579;DHT22;35483;50.828;3.228;2023-03-13T15:58:43;16.80;96.40
49579;DHT22;35483;50.828;3.228;2023-03-13T16:01:11;16.90;96.40
49579;DHT22;35483;50.828;3.228;2023-03-13T16:03:37;17.00;95.90
49579;DHT22;35483;50.828;3.228;2023-03-13T16:06:14;17.00;95.70
49579;DHT22;35483;50.828;3.228;2023-03-13T16:08:41;17.10;95.40
49579;DHT22;35483;50.828;3.228;2023-03-13T16:11:08;17.20;96.20
49579;DHT22;35483;50.828;3.228;2023-03-13T16:13:36;17.20;96.00
49579;DHT22;35483;50.828;3.228;2023-03-13T16:16:04;17.30;95.80
49579;DHT22;35483;50.828;3.228;2023-03-13T16:18:30;17.30;95.50
49579;DHT22;35483;50.828;3.228;2023-03-13T16:20:57;17.30;95.90
49579;DHT22;35483;50.828;3.228;2023-03-13T16:23:22;17.40;96.10
49579;DHT22;35483;50.828;3.228;2023-03-13T16:25:48;17.40;96.10
49579;DHT22;35483;50.828;3.228;2023-03-13T16:28:14;17.20;95.90
49579;DHT22;35483;50.828;3.228;2023-03-13T16:30:41;17.20;95.90
49579;DHT22;35483;50.828;3.228;2023-03-13T16:33:11;17.20;95.90
49579;DHT22;35483;50.828;3.228;2023-03-13T16:35:38;17.20;96.00
49579;DHT22;35483;50.828;3.228;2023-03-13T16:38:08;17.10;95.80
49579;DHT22;35483;50.828;3.228;2023-03-13T16:40:35;17.10;96.00
49579;DHT22;35483;50.828;3.228;2023-03-13T16:43:01;17.00;96.30
49579;DHT22;35483;50.828;3.228;2023-03-13T16:45:27;16.90;96.40
49579;DHT22;35483;50.828;3.228;2023-03-13T16:47:53;16.80;96.40
49579;DHT22;35483;50.828;3.228;2023-03-13T16:50:31;16.70;96.50
49579;DHT22;35483;50.828;3.228;2023-03-13T16:52:57;16.60;95.40
49579;DHT22;35483;50.828;3.228;2023-03-13T16:55:25;16.40;96.70
49579;DHT22;35483;50.828;3.228;2023-03-13T16:57:58;16.30;96.70
49579;DHT22;35483;50.828;3.228;2023-03-13T17:00:26;16.20;96.70
49579;DHT22;35483;50.828;3.228;2023-03-13T17:02:52;16.10;96.80
49579;DHT22;35483;50.828;3.228;2023-03-13T17:05:18;16.00;96.70
49579;DHT22;35483;50.828;3.228;2023-03-13T17:07:46;15.90;96.70
49579;DHT22;35483;50.828;3.228;2023-03-13T17:10:18;15.80;96.80
49579;DHT22;35483;50.828;3.228;2023-03-13T17:12:46;15.70;95.60
49579;DHT22;35483;50.828;3.228;2023-03-13T17:15:11;15.60;96.60
49579;DHT22;35483;50.828;3.228;2023-03-13T17:17:37;15.50;96.60
49579;DHT22;35483;50.828;3.228;2023-03-13T17:20:04;15.50;96.70
49579;DHT22;35483;50.828;3.228;2023-03-13T17:22:31;15.40;96.20